Time;durP1;ratioP1;P1;durP2;ratioP2;P2;SDS_P1;SDS_P2;PMS_P1;PMS_P2;Temp;Humidity;BMP_temperature;BMP_pressure;BME280_temperature;BME280_humidity;BME280_pressure;Samples;Min_cycle;Max_cycle;Signal;HPM_P1;HPM_P2
2023/12/28 00:00:44;;;;;;;4.00;1.52;;;;;;;13.73;49.22;101133.69;4232367;28;20504;-54
2023/12/28 00:02:46;;;;;;;3.63;1.88;;;;;;;13.73;48.99;101136.31;4231298;28;20093;-52
2023/12/28 00:04:48;;;;;;;3.97;1.80;;;;;;;13.71;49.23;101145.25;4247340;27;20051;-53
2023/12/28 00:06:49;;;;;;;3.40;1.70;;;;;;;13.73;49.46;101146.91;4249410;27;20398;-53
2023/12/28 00:08:51;;;;;;;6.00;1.90;;;;;;;13.74;49.38;101150.38;4249264;27;20054;-53
2023/12/28 00:11:05;;;;;;;4.75;1.80;;;;;;;13.72;49.38;101152.25;4249109;27;20043;-53
2023/12/28 00:13:06;;;;;;;3.97;1.63;;;;;;;13.72;49.23;101153.09;4248810;27;20573;-54
2023/12/28 00:15:08;;;;;;;4.60;1.80;;;;;;;13.73;49.33;101159.22;4241449;27;20047;-53
2023/12/28 00:17:10;;;;;;;4.45;1.73;;;;;;;13.73;49.27;101164.53;4248476;27;20039;-50
2023/12/28 00:19:11;;;;;;;4.28;2.00;;;;;;;13.72;49.57;101154.91;4249169;27;20350;-53
2023/12/28 00:21:13;;;;;;;3.97;1.77;;;;;;;13.73;49.15;101153.94;4248916;27;20054;-54
2023/12/28 00:23:15;;;;;;;3.88;1.80;;;;;;;13.72;49.54;101157.53;4248693;27;20051;-53
2023/12/28 00:25:16;;;;;;;3.92;1.83;;;;;;;13.73;49.34;101164.53;4248806;27;20134;-52
2023/12/28 00:27:18;;;;;;;4.55;1.70;;;;;;;13.73;49.57;101153.94;4248984;27;20051;-52
2023/12/28 00:29:20;;;;;;;3.80;1.77;;;;;;;13.71;49.50;101158.47;4248540;27;20045;-50
2023/12/28 00:31:22;;;;;;;3.42;1.60;;;;;;;13.72;49.63;101162.81;4247282;27;20525;-53
2023/12/28 00:33:23;;;;;;;4.82;1.77;;;;;;;13.70;49.46;101164.66;4248558;27;20047;-53
2023/12/28 00:35:25;;;;;;;4.45;1.80;;;;;;;13.71;49.27;101166.38;4230559;28;20043;-52
2023/12/28 00:37:27;;;;;;;3.83;1.70;;;;;;;13.72;49.56;101165.47;4248708;27;20501;-55
2023/12/28 00:39:28;;;;;;;4.15;1.60;;;;;;;13.72;49.79;101165.47;4248600;27;20054;-54
2023/12/28 00:41:30;;;;;;;3.63;1.80;;;;;;;13.72;49.78;101163.66;4248376;27;20053;-54
2023/12/28 00:43:32;;;;;;;3.60;1.67;;;;;;;13.72;49.70;101165.47;4248450;27;20038;-52
2023/12/28 00:45:33;;;;;;;4.35;1.75;;;;;;;13.71;49.62;101169.88;4248294;27;20047;-53
2023/12/28 00:47:35;;;;;;;4.05;1.65;;;;;;;13.71;49.71;101161.09;4238317;27;20040;-53
2023/12/28 00:49:37;;;;;;;4.68;1.60;;;;;;;13.71;49.50;101163.75;4231529;28;20074;-53
2023/12/28 00:51:39;;;;;;;3.28;1.50;;;;;;;13.71;49.78;101161.09;4231648;28;20393;-53
2023/12/28 00:53:40;;;;;;;4.10;1.90;;;;;;;13.71;49.73;101159.31;4235964;27;20450;-54
2023/12/28 00:55:42;;;;;;;3.90;1.63;;;;;;;13.70;49.66;101157.59;4248386;27;20088;-54
2023/12/28 00:57:44;;;;;;;3.88;1.63;;;;;;;13.68;49.65;101153.28;4248532;27;20119;-52
2023/12/28 00:59:45;;;;;;;3.92;1.83;;;;;;;13.71;49.84;101153.16;4229832;28;20149;-52
2023/12/28 01:01:47;;;;;;;3.58;1.60;;;;;;;13.71;50.10;101158.47;4247840;27;20039;-54
2023/12/28 01:03:49;;;;;;;3.92;1.73;;;;;;;13.70;50.09;101159.38;4244451;27;20114;-54
2023/12/28 01:05:52;;;;;;;4.03;1.67;;;;;;;13.70;49.79;101160.22;4247215;27;20100;-54
2023/12/28 01:07:54;;;;;;;4.25;1.75;;;;;;;13.70;50.02;101152.28;4248217;27;20051;-54
2023/12/28 01:09:56;;;;;;;4.20;1.70;;;;;;;13.70;49.96;101148.81;4247582;27;20084;-53
2023/12/28 01:11:58;;;;;;;5.75;2.03;;;;;;;13.70;50.00;101157.59;4246954;27;20053;-51
2023/12/28 01:14:00;;;;;;;;;;;;;;;13.69;50.28;101162.94;4248371;27;20038;-54
2023/12/28 01:16:02;;;;;;;4.22;1.60;;;;;;;13.68;50.40;101162.09;4246837;27;20382;-53
2023/12/28 01:18:04;;;;;;;4.75;2.00;;;;;;;13.70;49.88;101164.66;4247914;27;20598;-53
2023/12/28 01:20:06;;;;;;;4.47;1.65;;;;;;;13.69;50.23;101161.19;4248116;27;20071;-54
2023/12/28 01:22:08;;;;;;;3.33;1.50;;;;;;;13.70;50.18;101169.94;4234999;27;20502;-53
2023/12/28 01:24:10;;;;;;;3.95;1.60;;;;;;;13.70;50.17;101164.66;4238985;27;20043;-53
2023/12/28 01:26:14;;;;;;;3.03;1.73;;;;;;;13.70;50.15;101162.03;4247529;27;20054;-53
2023/12/28 01:28:15;;;;;;;3.08;1.50;;;;;;;13.70;50.20;101164.66;4247816;27;20484;-53
2023/12/28 01:30:17;;;;;;;3.95;1.73;;;;;;;13.70;50.08;101168.16;4246796;27;20050;-52
2023/12/28 01:32:19;;;;;;;4.30;1.80;;;;;;;13.70;50.35;101175.22;4247578;27;20474;-53
2023/12/28 01:34:20;;;;;;;3.67;1.70;;;;;;;13.69;50.11;101168.22;4247691;27;20047;-53
2023/12/28 01:36:22;;;;;;;4.55;1.60;;;;;;;13.67;50.19;101157.72;4247849;27;20043;-50
2023/12/28 01:38:24;;;;;;;4.45;1.52;;;;;;;13.68;50.33;101155.94;4247640;27;20043;-53
2023/12/28 01:40:26;;;;;;;3.95;1.60;;;;;;;13.69;50.18;101160.28;4231193;27;20104;-53
2023/12/28 01:42:30;;;;;;;3.50;1.70;;;;;;;13.60;50.34;101142.16;4246802;27;20043;-51
2023/12/28 01:44:32;;;;;;;3.75;1.70;;;;;;;13.68;50.11;101167.38;4211789;28;20044;-54
2023/12/28 01:46:34;;;;;;;4.40;1.88;;;;;;;13.69;50.15;101174.38;4247537;27;20047;-54
2023/12/28 01:48:35;;;;;;;4.05;1.80;;;;;;;13.69;50.27;101169.09;4247461;27;20429;-51
2023/12/28 01:50:38;;;;;;;4.80;1.80;;;;;;;13.69;50.25;101178.81;4247145;27;20043;-53
2023/12/28 01:52:40;;;;;;;;;;;;;;;13.67;50.31;101178.00;4248005;27;20090;-54
2023/12/28 01:54:41;;;;;;;4.47;1.80;;;;;;;13.65;50.24;101186.00;4247459;27;19931;-54
2023/12/28 01:56:44;;;;;;;5.25;1.73;;;;;;;13.66;50.44;101193.00;4230897;27;20468;-52
2023/12/28 01:58:49;;;;;;;3.92;1.70;;;;;;;13.67;50.15;101192.09;4230249;28;20448;-49
2023/12/28 02:00:50;;;;;;;3.83;1.67;;;;;;;13.67;49.98;101205.31;4246668;27;20043;-48
2023/12/28 02:02:52;;;;;;;4.43;1.73;;;;;;;13.68;50.42;101198.22;4247639;27;20043;-52
2023/12/28 02:04:54;;;;;;;3.85;1.70;;;;;;;13.66;50.29;101200.94;4247421;27;20097;-48
2023/12/28 02:06:57;;;;;;;3.88;1.80;;;;;;;13.67;50.41;101202.66;4247246;27;20047;-50
2023/12/28 02:08:59;;;;;;;4.80;1.70;;;;;;;13.66;50.55;101200.09;4247271;27;20043;-49
2023/12/28 02:11:01;;;;;;;3.83;1.50;;;;;;;13.65;50.53;101201.84;4230127;28;20130;-51
2023/12/28 02:13:02;;;;;;;5.28;1.70;;;;;;;13.66;50.63;101208.88;4229573;27;20047;-51
2023/12/28 02:15:04;;;;;;;5.05;1.70;;;;;;;13.66;50.58;101214.16;4219624;28;20074;-51
2023/12/28 02:17:31;;;;;;;3.75;1.55;;;;;;;13.68;50.61;101208.78;4247206;27;20052;-52
2023/12/28 02:19:54;;;;;;;3.65;1.70;;;;;;;13.67;50.41;101205.31;4247003;27;20396;-53
2023/12/28 02:21:57;;;;;;;4.30;1.70;;;;;;;13.65;50.48;101217.72;4247171;27;20063;-49
2023/12/28 02:23:58;;;;;;;4.68;1.90;;;;;;;13.66;50.68;101214.16;4247075;27;20043;-53
2023/12/28 02:26:01;;;;;;;4.15;1.73;;;;;;;13.64;50.39;101209.84;4247062;27;20039;-51
2023/12/28 02:28:03;;;;;;;4.93;1.92;;;;;;;13.64;50.62;101208.06;4243033;27;20103;-52
2023/12/28 02:30:06;;;;;;;;;;;;;;;13.64;51.11;101207.22;4239644;27;20058;-49
2023/12/28 02:32:09;;;;;;;4.00;1.60;;;;;;;13.63;50.42;101216.06;4246909;28;20075;-53
2023/12/28 02:34:22;;;;;;;4.15;1.60;;;;;;;13.65;51.00;101214.22;4246895;28;20071;-51
2023/12/28 02:36:26;;;;;;;4.88;1.80;;;;;;;13.64;50.47;101216.00;4247112;28;20058;-51
2023/12/28 02:38:30;;;;;;;3.83;1.70;;;;;;;13.65;50.46;101211.56;4246872;28;20043;-50
2023/12/28 02:40:38;;;;;;;4.00;1.50;;;;;;;13.65;50.97;101217.72;4246241;27;20104;-50
2023/12/28 02:42:40;;;;;;;4.70;1.98;;;;;;;13.65;50.80;101219.50;4246441;28;20047;-51
2023/12/28 02:44:41;;;;;;;4.80;1.80;;;;;;;13.63;50.77;101200.19;4245621;28;20118;-55
2023/12/28 02:46:43;;;;;;;5.18;1.60;;;;;;;13.63;50.57;101202.84;4246857;28;20043;-53
2023/12/28 02:48:45;;;;;;;3.55;1.70;;;;;;;13.64;50.76;101210.69;4246986;28;20443;-50
2023/12/28 02:50:47;;;;;;;3.83;1.73;;;;;;;13.64;50.60;101209.84;4247073;28;20043;-54
2023/12/28 02:52:48;;;;;;;4.60;1.70;;;;;;;13.61;50.83;101205.56;4247043;28;20494;-49
2023/12/28 02:54:50;;;;;;;4.43;1.90;;;;;;;13.64;50.99;101207.22;4246510;28;20490;-50
2023/12/28 02:56:52;;;;;;;3.30;1.70;;;;;;;13.62;51.06;101206.41;4246258;28;20047;-53
2023/12/28 02:58:53;;;;;;;3.97;1.63;;;;;;;13.64;50.99;101201.94;4246844;28;20122;-54
2023/12/28 03:00:55;;;;;;;4.28;1.70;;;;;;;13.63;50.89;101205.47;4239070;28;20043;-51
2023/12/28 03:02:57;;;;;;;5.30;1.80;;;;;;;13.64;50.79;101199.28;4229754;28;20127;-50
2023/12/28 03:04:58;;;;;;;5.55;1.90;;;;;;;13.64;50.96;101199.28;4235348;28;20126;-53
2023/12/28 03:07:01;;;;;;;3.83;1.75;;;;;;;13.62;50.65;101198.47;4246704;28;20130;-53
2023/12/28 03:09:02;;;;;;;;;;;;;;;13.61;51.57;101196.75;4247259;28;20051;-52
2023/12/28 03:11:04;;;;;;;4.20;1.55;;;;;;;13.60;51.02;101195.91;4246184;28;19925;-53
2023/12/28 03:13:06;;;;;;;4.40;1.80;;;;;;;13.62;51.43;101193.19;4246979;28;20073;-54
2023/12/28 03:15:08;;;;;;;4.82;1.77;;;;;;;13.61;51.30;101192.34;4246492;28;20092;-53
2023/12/28 03:17:11;;;;;;;4.35;1.90;;;;;;;13.62;51.42;101195.81;4243192;28;20159;-53
2023/12/28 03:19:13;;;;;;;4.47;1.70;;;;;;;13.63;51.35;101202.84;4229891;28;20464;-55
2023/12/28 03:21:15;;;;;;;3.72;1.73;;;;;;;13.61;51.11;101205.56;4229654;28;20134;-54
2023/12/28 03:23:16;;;;;;;4.10;1.63;;;;;;;13.63;51.39;101213.41;4229811;28;20467;-53
2023/12/28 03:25:18;;;;;;;4.65;1.70;;;;;;;13.62;51.11;101216.97;4237102;28;20498;-55
2023/12/28 03:27:20;;;;;;;4.50;2.00;;;;;;;13.62;51.59;101220.50;4246715;28;20092;-52
2023/12/28 03:29:21;;;;;;;4.82;1.50;;;;;;;13.62;51.15;101211.69;4246504;28;20055;-54
2023/12/28 03:31:23;;;;;;;5.03;1.98;;;;;;;13.62;51.22;101217.84;4246194;28;20078;-51
2023/12/28 03:33:25;;;;;;;4.00;1.63;;;;;;;13.62;51.34;101219.63;4239898;28;20552;-53
2023/12/28 03:35:26;;;;;;;4.38;1.50;;;;;;;13.62;51.42;101214.31;4238608;28;20061;-52
2023/12/28 03:37:28;;;;;;;4.45;1.77;;;;;;;13.63;51.06;101218.69;4246490;27;20043;-53
2023/12/28 03:39:30;;;;;;;4.35;1.60;;;;;;;13.62;51.14;101215.22;4249332;27;20063;-50
2023/12/28 03:41:32;;;;;;;3.92;1.40;;;;;;;13.62;51.27;101216.97;4249215;27;20471;-55
2023/12/28 03:43:33;;;;;;;5.18;2.00;;;;;;;13.62;51.32;101207.28;4249633;27;20063;-54
2023/12/28 03:45:35;;;;;;;5.47;1.80;;;;;;;13.60;51.15;101201.19;4249068;27;20063;-52
2023/12/28 03:47:37;;;;;;;4.53;1.70;;;;;;;13.61;51.50;101205.56;4249293;27;20047;-54
2023/12/28 03:49:38;;;;;;;;;;;;;;;13.60;51.49;101210.88;4249961;27;20043;-51
2023/12/28 03:51:40;;;;;;;5.18;1.65;;;;;;;13.58;51.51;101211.84;4239114;27;19962;-52
2023/12/28 03:53:42;;;;;;;4.00;1.58;;;;;;;13.61;51.42;101220.53;4232504;28;20489;-54
2023/12/28 03:55:44;;;;;;;3.40;1.40;;;;;;;13.60;51.08;101216.16;4242880;27;20614;-54
2023/12/28 03:57:46;;;;;;;3.78;1.50;;;;;;;13.60;51.51;101209.13;4248931;27;20040;-56
2023/12/28 03:59:48;;;;;;;5.03;1.70;;;;;;;13.60;51.39;101200.31;4249215;27;20123;-52
2023/12/28 04:01:50;;;;;;;4.38;1.63;;;;;;;13.58;51.27;101209.19;4249306;27;20076;-52
2023/12/28 04:03:52;;;;;;;4.97;1.52;;;;;;;13.58;51.42;101201.25;4249358;27;20119;-52
2023/12/28 04:05:54;;;;;;;3.90;1.60;;;;;;;13.60;51.28;101202.94;4248869;27;20121;-52
2023/12/28 04:07:55;;;;;;;3.88;1.52;;;;;;;13.60;51.28;101208.25;4231888;28;20044;-52
2023/12/28 04:09:58;;;;;;;4.93;1.92;;;;;;;13.57;51.37;101212.75;4231975;28;20097;-50
2023/12/28 04:12:00;;;;;;;3.70;1.65;;;;;;;13.60;51.48;101216.16;4231949;28;20089;-52
2023/12/28 04:14:02;;;;;;;4.70;1.88;;;;;;;13.60;51.73;101210.88;4232150;28;20045;-52
2023/12/28 04:16:04;;;;;;;3.22;1.40;;;;;;;13.57;51.65;101210.09;4245068;27;20043;-51
2023/12/28 04:18:05;;;;;;;5.72;1.63;;;;;;;13.58;51.58;101216.25;4249024;27;20134;-53
2023/12/28 04:20:08;;;;;;;4.90;1.50;;;;;;;13.60;51.53;101213.53;4249132;27;20050;-55
2023/12/28 04:22:10;;;;;;;4.40;1.50;;;;;;;13.58;51.47;101214.47;4242714;27;20040;-52
2023/12/28 04:24:11;;;;;;;4.75;1.67;;;;;;;13.58;51.82;101209.19;4231712;28;20462;-54
2023/12/28 04:26:13;;;;;;;4.85;1.60;;;;;;;13.58;51.63;101211.84;4246202;27;20142;-53
2023/12/28 04:28:15;;;;;;;3.03;1.50;;;;;;;13.57;51.30;101207.47;4248886;27;20039;-52
2023/12/28 04:30:16;;;;;;;5.20;1.80;;;;;;;13.57;51.55;101210.09;4248797;27;20544;-52
2023/12/28 04:32:18;;;;;;;3.75;1.48;;;;;;;13.56;51.68;101199.56;4248959;27;20211;-52
2023/12/28 04:34:20;;;;;;;4.00;1.80;;;;;;;13.57;51.34;101209.22;4248674;27;20077;-54
2023/12/28 04:36:21;;;;;;;4.38;1.75;;;;;;;13.57;51.81;101203.94;4248429;27;20138;-52
2023/12/28 04:38:23;;;;;;;5.00;1.60;;;;;;;13.55;51.70;101208.44;4244410;27;20043;-51
2023/12/28 04:40:25;;;;;;;4.15;1.52;;;;;;;13.57;51.73;101206.59;4231338;28;20067;-53
2023/12/28 04:42:26;;;;;;;4.07;1.70;;;;;;;13.57;51.82;101214.50;4231411;28;20049;-55
2023/12/28 04:44:28;;;;;;;4.18;1.60;;;;;;;13.56;51.48;101213.66;4231810;28;20048;-52
2023/12/28 04:46:30;;;;;;;4.90;1.70;;;;;;;13.56;51.87;101213.66;4229176;28;20050;-50
2023/12/28 04:48:32;;;;;;;3.67;1.52;;;;;;;13.55;51.37;101205.81;4248298;27;20046;-53
2023/12/28 04:50:34;;;;;;;4.40;1.67;;;;;;;13.56;51.38;101196.94;4248306;27;20116;-52
2023/12/28 04:52:40;;;;;;;4.72;1.65;;;;;;;13.56;51.72;101211.03;4247964;27;20054;-54
2023/12/28 04:54:42;;;;;;;4.38;1.55;;;;;;;13.56;51.48;101205.72;4247986;27;20047;-54
2023/12/28 04:56:45;;;;;;;5.43;1.88;;;;;;;13.56;51.58;101197.81;4234333;27;20130;-53
2023/12/28 04:58:46;;;;;;;5.30;1.60;;;;;;;13.56;51.37;101195.16;4231448;28;20062;-52
2023/12/28 05:00:48;;;;;;;3.60;1.50;;;;;;;13.56;51.66;101195.16;4221419;28;20088;-51
2023/12/28 05:02:50;;;;;;;3.35;1.23;;;;;;;13.56;51.76;101197.81;4248132;27;20070;-54
2023/12/28 05:04:51;;;;;;;4.43;1.58;;;;;;;13.50;51.69;101194.53;4247839;27;20043;-54
2023/12/28 05:06:53;;;;;;;4.78;1.60;;;;;;;13.56;51.24;101203.09;4247996;27;20062;-51
2023/12/28 05:08:55;;;;;;;4.10;1.50;;;;;;;13.56;51.50;101202.22;4248431;27;20083;-52
2023/12/28 05:10:56;;;;;;;4.55;1.77;;;;;;;13.55;51.48;101198.72;4248299;27;20072;-54
2023/12/28 05:12:58;;;;;;;3.70;1.42;;;;;;;13.53;51.49;101200.56;4238459;27;20043;-52
2023/12/28 05:15:03;;;;;;;3.58;1.75;;;;;;;13.56;51.74;101205.72;4234136;27;20130;-53
2023/12/28 05:17:05;;;;;;;3.65;1.42;;;;;;;13.55;51.60;101209.28;4247888;27;20501;-53
2023/12/28 05:19:06;;;;;;;4.75;1.70;;;;;;;13.54;51.95;101214.66;4229864;28;20051;-53
2023/12/28 05:21:08;;;;;;;5.65;1.80;;;;;;;13.55;51.44;101214.56;4247918;27;20062;-54
2023/12/28 05:23:10;;;;;;;4.90;1.40;;;;;;;13.56;52.12;101215.44;4248093;27;20047;-53
2023/12/28 05:25:12;;;;;;;3.90;1.30;;;;;;;13.52;51.37;101204.13;4247569;27;20484;-53
2023/12/28 05:27:13;;;;;;;3.88;1.30;;;;;;;13.55;51.54;101214.56;4247729;27;20047;-52
2023/12/28 05:29:15;;;;;;;3.92;1.50;;;;;;;13.55;51.62;101211.09;4248001;27;20047;-55
2023/12/28 05:31:16;;;;;;;4.68;1.60;;;;;;;13.54;51.35;101210.22;4242839;27;20071;-52
2023/12/28 05:33:18;;;;;;;4.07;1.50;;;;;;;13.53;51.50;101216.41;4247550;27;20043;-53
2023/12/28 05:35:20;;;;;;;3.55;1.58;;;;;;;13.54;51.54;101219.94;4247938;27;20529;-52
2023/12/28 05:37:21;;;;;;;5.25;1.67;;;;;;;13.55;51.63;101216.38;4247241;27;20119;-53
2023/12/28 05:39:23;;;;;;;3.88;1.30;;;;;;;13.54;51.50;101212.84;4247967;27;20146;-53
2023/12/28 05:41:25;;;;;;;4.32;1.60;;;;;;;13.54;51.28;101220.78;4247561;27;20051;-53
2023/12/28 05:43:26;;;;;;;4.13;1.70;;;;;;;13.54;51.73;101223.44;4247458;27;20043;-52
2023/12/28 05:45:28;;;;;;;4.82;1.77;;;;;;;13.53;51.64;101213.78;4243792;27;20047;-54
2023/12/28 05:47:30;;;;;;;4.65;1.80;;;;;;;13.54;51.82;101214.66;4247411;27;20147;-54
2023/12/28 05:49:31;;;;;;;4.05;1.83;;;;;;;13.54;51.70;101222.56;4247577;27;20501;-53
2023/12/28 05:51:40;;;;;;;4.47;1.65;;;;;;;13.54;51.88;101220.78;4247072;27;20078;-54
2023/12/28 05:53:42;;;;;;;4.68;1.70;;;;;;;13.52;51.92;101225.25;4247378;27;20067;-51
2023/12/28 05:55:44;;;;;;;3.90;1.60;;;;;;;13.52;51.50;101230.53;4247494;27;20135;-51
2023/12/28 05:57:45;;;;;;;4.95;2.00;;;;;;;13.52;51.71;101222.63;4247297;27;20050;-52
2023/12/28 05:59:47;;;;;;;5.00;1.77;;;;;;;13.51;51.62;101225.31;4247277;27;20130;-52
2023/12/28 06:01:49;;;;;;;4.03;1.40;;;;;;;13.51;51.70;101230.63;4237661;27;20130;-55
2023/12/28 06:03:52;;;;;;;4.28;1.33;;;;;;;13.51;52.08;101233.25;4230358;28;20478;-52
2023/12/28 06:05:55;;;;;;;5.00;1.70;;;;;;;13.51;51.83;101235.91;4229845;28;20081;-53
2023/12/28 06:07:57;;;;;;;4.50;1.50;;;;;;;13.50;51.80;101237.69;4230277;28;20134;-53
2023/12/28 06:09:59;;;;;;;;;;;;;;;13.50;52.16;101239.47;4230808;28;20047;-53
2023/12/28 06:12:01;;;;;;;4.10;1.40;;;;;;;13.47;51.92;101237.81;4225209;28;19927;-51
2023/12/28 06:14:02;;;;;;;4.68;1.60;;;;;;;13.49;51.86;101240.41;4247099;27;20053;-52
2023/12/28 06:16:04;;;;;;;4.88;1.55;;;;;;;13.48;51.73;101234.25;4228756;28;20537;-52
2023/12/28 06:18:06;;;;;;;4.70;2.13;;;;;;;13.48;51.76;101231.59;4239054;27;20332;-53
2023/12/28 06:20:09;;;;;;;4.32;1.50;;;;;;;13.50;51.71;101234.16;4246616;27;20047;-51
2023/12/28 06:22:11;;;;;;;5.45;1.85;;;;;;;13.50;51.92;101234.16;4246889;27;20063;-52
2023/12/28 06:24:12;;;;;;;4.32;1.52;;;;;;;13.50;51.74;101231.53;4247081;27;20078;-51
2023/12/28 06:26:14;;;;;;;5.40;1.83;;;;;;;13.49;52.01;101233.31;4247107;27;20051;-52
2023/12/28 06:28:16;;;;;;;5.47;1.55;;;;;;;13.48;51.85;101226.31;4247079;27;20516;-53
2023/12/28 06:30:17;;;;;;;4.50;1.35;;;;;;;13.48;51.51;101226.31;4247079;27;20047;-52
2023/12/28 06:32:19;;;;;;;4.78;1.70;;;;;;;13.49;51.68;101227.19;4246813;27;20044;-54
2023/12/28 06:34:24;;;;;;;4.05;1.48;;;;;;;13.49;51.93;101229.84;4230041;28;20046;-53
2023/12/28 06:36:25;;;;;;;3.90;1.17;;;;;;;13.48;51.88;101234.25;4230079;28;20044;-53
2023/12/28 06:38:27;;;;;;;6.05;1.77;;;;;;;13.47;51.97;101235.16;4246301;28;20122;-53
2023/12/28 06:40:29;;;;;;;4.30;1.60;;;;;;;13.49;52.09;101243.06;4246957;27;20488;-51
2023/12/28 06:42:30;;;;;;;5.35;1.80;;;;;;;13.47;51.80;101229.03;4246561;27;20047;-52
2023/12/28 06:44:32;;;;;;;4.97;1.70;;;;;;;13.48;51.81;101238.69;4247131;28;20383;-51
2023/12/28 06:46:34;;;;;;;3.80;1.42;;;;;;;13.48;51.86;101243.97;4246851;28;20458;-52
2023/12/28 06:48:36;;;;;;;4.10;1.63;;;;;;;13.47;51.73;101251.00;4246802;28;20048;-51
2023/12/28 06:50:38;;;;;;;5.35;1.63;;;;;;;13.45;51.78;101239.66;4245818;28;20054;-52
2023/12/28 06:52:39;;;;;;;4.53;1.45;;;;;;;13.37;51.90;101225.84;4246547;28;20079;-51
2023/12/28 06:54:41;;;;;;;5.82;1.65;;;;;;;13.46;51.95;101238.72;4229914;28;20561;-53
2023/12/28 06:56:43;;;;;;;5.18;1.50;;;;;;;13.46;52.24;101233.44;4212082;28;20068;-53
2023/12/28 06:58:45;;;;;;;;;;;;;;;13.45;52.25;101237.03;4230429;28;20058;-53
2023/12/28 07:00:46;;;;;;;4.43;1.40;;;;;;;13.38;51.85;101225.81;4230873;28;19920;-52
2023/12/28 07:02:48;;;;;;;4.40;1.58;;;;;;;13.45;52.05;101236.16;4246527;28;20084;-52
2023/12/28 07:04:50;;;;;;;5.22;1.55;;;;;;;13.46;52.09;101251.94;4246708;28;20047;-52
2023/12/28 07:06:52;;;;;;;5.07;1.67;;;;;;;13.46;51.94;101259.00;4246545;28;20122;-53
2023/12/28 07:08:53;;;;;;;5.85;1.90;;;;;;;13.45;52.29;101268.72;4245425;28;20556;-51
2023/12/28 07:10:55;;;;;;;5.32;1.60;;;;;;;13.45;52.00;101257.28;4246643;28;20081;-52
2023/12/28 07:12:57;;;;;;;4.35;1.45;;;;;;;13.44;52.26;101267.00;4246864;27;20490;-52
2023/12/28 07:14:59;;;;;;;5.60;1.85;;;;;;;13.45;51.91;101259.91;4249967;27;20424;-53
2023/12/28 07:17:00;;;;;;;5.65;1.80;;;;;;;13.44;52.47;101276.69;4250060;27;20070;-52
2023/12/28 07:19:04;;;;;;;5.88;1.95;;;;;;;13.45;52.31;101259.91;4249626;27;20049;-52
2023/12/28 07:21:09;;;;;;;5.05;1.52;;;;;;;13.43;52.01;101254.72;4249629;27;20043;-53
2023/12/28 07:23:11;;;;;;;4.93;1.70;;;;;;;13.43;52.04;101265.28;4249799;27;20117;-52
2023/12/28 07:25:13;;;;;;;5.28;1.73;;;;;;;13.44;52.32;101260.84;4244002;27;20047;-53
2023/12/28 07:27:15;;;;;;;4.97;1.65;;;;;;;13.43;52.26;101260.00;4232886;28;20463;-54
2023/12/28 07:29:17;;;;;;;;;;;;;;;13.42;52.47;101258.25;4215355;28;20054;-53
2023/12/28 07:31:23;;;;;;;5.03;1.60;;;;;;;13.42;52.66;101272.31;4237193;27;19930;-53
2023/12/28 07:33:25;;;;;;;5.55;1.70;;;;;;;13.42;52.26;101277.59;4249520;27;20493;-53
2023/12/28 07:35:27;;;;;;;4.38;1.60;;;;;;;13.43;52.34;101270.56;4249787;27;20047;-52
2023/12/28 07:37:29;;;;;;;5.30;1.75;;;;;;;13.44;52.20;101277.56;4249659;27;20043;-53
2023/12/28 07:39:30;;;;;;;4.97;1.90;;;;;;;13.44;52.45;101276.69;4249303;27;20411;-55
2023/12/28 07:41:32;;;;;;;6.15;1.70;;;;;;;13.44;52.50;101282.84;4249401;27;20466;-54
2023/12/28 07:43:33;;;;;;;5.78;1.70;;;;;;;13.42;52.20;101282.91;4234338;27;20126;-53
2023/12/28 07:45:38;;;;;;;5.90;2.17;;;;;;;13.45;52.46;101275.78;4232621;28;20525;-54
2023/12/28 07:47:40;;;;;;;6.63;1.70;;;;;;;13.44;52.11;101287.25;4246213;27;20047;-54
2023/12/28 07:49:42;;;;;;;4.30;1.50;;;;;;;13.44;52.32;101287.25;4249518;27;20057;-52
2023/12/28 07:51:44;;;;;;;4.00;1.48;;;;;;;13.45;52.06;101286.34;4249423;27;20047;-54
2023/12/28 07:53:45;;;;;;;6.22;1.63;;;;;;;13.45;52.19;101289.88;4249628;27;20047;-52
2023/12/28 07:55:47;;;;;;;5.35;1.83;;;;;;;13.45;52.28;101287.22;4249610;27;20066;-51
2023/12/28 07:57:49;;;;;;;5.13;1.67;;;;;;;13.44;51.73;101288.16;4249179;27;20406;-54
2023/12/28 07:59:51;;;;;;;;;;;;;;;13.45;52.72;101289.00;4234701;27;20044;-53
2023/12/28 08:01:53;;;;;;;5.13;1.60;;;;;;;13.42;52.50;101292.63;4236838;27;19919;-50
2023/12/28 08:03:55;;;;;;;5.88;1.60;;;;;;;13.45;52.28;101291.63;4249092;27;20490;-52
2023/12/28 08:05:57;;;;;;;6.15;1.73;;;;;;;13.44;52.18;101296.06;4249199;27;20070;-53
2023/12/28 08:07:58;;;;;;;7.00;1.63;;;;;;;13.44;52.11;101298.72;4248910;27;20126;-51
2023/12/28 08:10:01;;;;;;;6.15;1.75;;;;;;;13.45;52.25;101296.91;4249245;27;20043;-51
2023/12/28 08:12:03;;;;;;;5.35;1.80;;;;;;;13.45;52.48;101303.06;4248909;27;20043;-52
2023/12/28 08:14:05;;;;;;;5.00;1.50;;;;;;;13.46;52.39;101311.84;4248310;27;20039;-53
2023/12/28 08:16:07;;;;;;;6.38;1.52;;;;;;;13.45;52.38;101307.47;4231788;28;20285;-53
2023/12/28 08:18:08;;;;;;;6.00;1.80;;;;;;;13.47;52.34;101313.59;4248496;27;20047;-53
2023/12/28 08:20:10;;;;;;;5.00;1.65;;;;;;;13.45;52.55;101313.66;4249210;27;20141;-52
2023/12/28 08:22:12;;;;;;;7.13;1.85;;;;;;;13.46;52.02;101318.00;4248960;27;20043;-52
2023/12/28 08:24:14;;;;;;;5.47;1.70;;;;;;;13.46;52.06;101317.13;4248702;27;20081;-50
2023/12/28 08:26:16;;;;;;;5.20;1.90;;;;;;;13.45;52.09;101323.34;4248716;27;20051;-54
2023/12/28 08:28:17;;;;;;;5.35;1.60;;;;;;;13.47;52.07;101317.06;4232048;27;20081;-53
2023/12/28 08:30:19;;;;;;;5.80;1.58;;;;;;;13.45;52.12;101324.22;4248707;27;20122;-54
2023/12/28 08:32:21;;;;;;;6.47;2.00;;;;;;;13.47;51.96;101321.50;4239310;27;20049;-53
2023/12/28 08:34:23;;;;;;;4.05;1.40;;;;;;;13.47;52.34;101311.78;4248766;27;20091;-53
2023/12/28 08:36:25;;;;;;;4.80;1.63;;;;;;;13.49;52.46;101319.69;4248538;27;20122;-52
2023/12/28 08:38:27;;;;;;;4.50;1.75;;;;;;;13.47;52.21;101314.44;4248898;27;20493;-52
2023/12/28 08:40:29;;;;;;;5.80;1.60;;;;;;;13.47;52.29;101319.72;4247580;27;20107;-52
2023/12/28 08:42:30;;;;;;;5.07;1.65;;;;;;;13.47;52.30;101319.72;4248628;27;20058;-52
2023/12/28 08:44:33;;;;;;;6.10;1.75;;;;;;;13.46;52.26;101317.13;4248469;27;20039;-52
2023/12/28 08:46:35;;;;;;;4.03;1.48;;;;;;;13.48;52.09;101317.94;4244624;27;20135;-53
2023/12/28 08:48:37;;;;;;;5.07;1.70;;;;;;;13.47;51.98;101322.34;4248526;27;20084;-52
2023/12/28 08:50:38;;;;;;;6.00;1.60;;;;;;;13.47;52.26;101324.16;4248417;27;20039;-52
2023/12/28 08:52:40;;;;;;;5.35;1.70;;;;;;;13.46;52.36;101318.00;4248661;27;20063;-52
2023/12/28 08:54:42;;;;;;;4.97;1.63;;;;;;;13.46;52.26;101315.34;4248547;27;20153;-53
2023/12/28 08:56:43;;;;;;;5.38;1.80;;;;;;;13.47;52.26;101318.88;4248237;27;20113;-52
2023/12/28 08:58:47;;;;;;;7.45;1.88;;;;;;;13.47;52.13;101329.44;4248225;27;20050;-53
2023/12/28 09:00:50;;;;;;;5.95;1.80;;;;;;;13.47;52.21;101332.94;4248470;27;20114;-51
2023/12/28 09:02:51;;;;;;;;;;;;;;;13.45;52.33;101326.84;4242981;27;20418;-51
2023/12/28 09:04:53;;;;;;;5.70;1.45;;;;;;;13.45;52.57;101332.16;4231424;28;20388;-51
2023/12/28 09:06:54;;;;;;;5.57;1.80;;;;;;;13.47;52.25;101340.00;4235967;27;20039;-55
2023/12/28 09:08:56;;;;;;;5.53;2.00;;;;;;;13.48;52.57;101328.53;4247992;27;20054;-52
2023/12/28 09:10:58;;;;;;;4.70;1.60;;;;;;;13.48;52.35;101337.28;4248173;27;20527;-52
2023/12/28 09:13:00;;;;;;;4.90;1.75;;;;;;;13.49;51.92;101335.53;4248231;27;20043;-52
2023/12/28 09:15:02;;;;;;;6.38;2.05;;;;;;;13.48;52.15;101336.44;4247805;27;20133;-54
2023/12/28 09:17:04;;;;;;;5.65;1.98;;;;;;;13.49;52.11;101341.66;4247981;27;20043;-51
2023/12/28 09:19:06;;;;;;;6.82;2.03;;;;;;;13.49;52.33;101339.03;4241568;27;20036;-50
2023/12/28 09:21:10;;;;;;;4.22;1.60;;;;;;;13.50;52.01;101343.41;4230888;28;20047;-52
2023/12/28 09:23:11;;;;;;;7.55;1.92;;;;;;;13.51;52.19;101346.88;4231030;28;20089;-53
2023/12/28 09:25:13;;;;;;;3.83;1.40;;;;;;;13.53;52.19;101345.06;4231069;28;20048;-53
2023/12/28 09:27:15;;;;;;;;;;;;;;;13.50;52.30;101340.75;4238309;27;20458;-53
2023/12/28 09:29:17;;;;;;;4.10;1.38;;;;;;;13.49;52.37;101339.03;4247627;27;20401;-53